sensor_id;sensor_type;location;lat;lon;timestamp;temperature;humidity
58809;DHT22;44579;51.672;7.834;2023-07-30T00:01:30;18.80;87.10
58809;DHT22;44579;51.672;7.834;2023-07-30T00:03:56;18.80;87.10
58809;DHT22;44579;51.672;7.834;2023-07-30T00:06:24;18.80;87.10
58809;DHT22;44579;51.672;7.834;2023-07-30T00:08:50;18.80;87.10
58809;DHT22;44579;51.672;7.834;2023-07-30T00:11:17;18.70;87.00
58809;DHT22;44579;51.672;7.834;2023-07-30T00:13:44;18.70;87.10
58809;DHT22;44579;51.672;7.834;2023-07-30T00:16:11;18.60;87.10
58809;DHT22;44579;51.672;7.834;2023-07-30T00:18:37;18.60;87.20
58809;DHT22;44579;51.672;7.834;2023-07-30T00:21:04;18.60;87.20
58809;DHT22;44579;51.672;7.834;2023-07-30T00:23:31;18.60;87.30
58809;DHT22;44579;51.672;7.834;2023-07-30T00:25:58;18.60;87.40
58809;DHT22;44579;51.672;7.834;2023-07-30T00:28:24;18.50;87.30
58809;DHT22;44579;51.672;7.834;2023-07-30T00:30:51;18.50;87.40
58809;DHT22;44579;51.672;7.834;2023-07-30T00:33:18;18.40;87.30
58809;DHT22;44579;51.672;7.834;2023-07-30T00:35:45;18.40;87.40
58809;DHT22;44579;51.672;7.834;2023-07-30T00:38:11;18.40;87.50
58809;DHT22;44579;51.672;7.834;2023-07-30T00:40:39;18.40;87.50
58809;DHT22;44579;51.672;7.834;2023-07-30T00:43:06;18.30;87.60
58809;DHT22;44579;51.672;7.834;2023-07-30T00:45:33;18.30;87.70
58809;DHT22;44579;51.672;7.834;2023-07-30T00:48:00;18.20;87.80
58809;DHT22;44579;51.672;7.834;2023-07-30T00:50:27;18.20;87.90
58809;DHT22;44579;51.672;7.834;2023-07-30T00:52:54;18.20;87.90
58809;DHT22;44579;51.672;7.834;2023-07-30T00:55:21;18.20;88.00
58809;DHT22;44579;51.672;7.834;2023-07-30T00:57:48;18.10;88.00
58809;DHT22;44579;51.672;7.834;2023-07-30T01:00:15;18.10;88.00
58809;DHT22;44579;51.672;7.834;2023-07-30T01:02:42;18.10;88.20
58809;DHT22;44579;51.672;7.834;2023-07-30T01:05:09;18.00;88.10
58809;DHT22;44579;51.672;7.834;2023-07-30T01:07:36;18.00;88.20
58809;DHT22;44579;51.672;7.834;2023-07-30T01:10:03;18.00;88.30
58809;DHT22;44579;51.672;7.834;2023-07-30T01:12:30;17.90;88.20
58809;DHT22;44579;51.672;7.834;2023-07-30T01:14:58;17.90;88.30
58809;DHT22;44579;51.672;7.834;2023-07-30T01:17:25;17.90;88.30
58809;DHT22;44579;51.672;7.834;2023-07-30T01:19:53;17.90;88.20
58809;DHT22;44579;51.672;7.834;2023-07-30T01:22:21;17.90;88.30
58809;DHT22;44579;51.672;7.834;2023-07-30T01:24:49;17.80;88.30
58809;DHT22;44579;51.672;7.834;2023-07-30T01:27:21;17.80;88.40
58809;DHT22;44579;51.672;7.834;2023-07-30T01:29:53;17.80;88.40
58809;DHT22;44579;51.672;7.834;2023-07-30T01:32:26;17.70;88.30
58809;DHT22;44579;51.672;7.834;2023-07-30T01:34:54;17.70;88.30
58809;DHT22;44579;51.672;7.834;2023-07-30T01:37:21;17.70;88.30
58809;DHT22;44579;51.672;7.834;2023-07-30T01:39:49;17.70;88.30
58809;DHT22;44579;51.672;7.834;2023-07-30T01:42:16;17.60;88.40
58809;DHT22;44579;51.672;7.834;2023-07-30T01:44:43;17.60;88.40
58809;DHT22;44579;51.672;7.834;2023-07-30T01:47:10;17.50;88.40
58809;DHT22;44579;51.672;7.834;2023-07-30T01:49:36;17.50;88.50
58809;DHT22;44579;51.672;7.834;2023-07-30T01:52:03;17.50;88.40
58809;DHT22;44579;51.672;7.834;2023-07-30T01:54:30;17.50;88.40
58809;DHT22;44579;51.672;7.834;2023-07-30T01:56:57;17.50;88.40
58809;DHT22;44579;51.672;7.834;2023-07-30T01:59:24;17.40;88.30
58809;DHT22;44579;51.672;7.834;2023-07-30T02:01:50;17.50;88.40
58809;DHT22;44579;51.672;7.834;2023-07-30T02:04:17;17.40;88.40
58809;DHT22;44579;51.672;7.834;2023-07-30T02:06:44;17.40;88.30
58809;DHT22;44579;51.672;7.834;2023-07-30T02:09:11;17.30;88.30
58809;DHT22;44579;51.672;7.834;2023-07-30T02:11:38;17.30;88.40
58809;DHT22;44579;51.672;7.834;2023-07-30T02:14:06;17.30;88.50
58809;DHT22;44579;51.672;7.834;2023-07-30T02:16:32;17.20;88.50
58809;DHT22;44579;51.672;7.834;2023-07-30T02:18:59;17.20;88.60
58809;DHT22;44579;51.672;7.834;2023-07-30T02:21:26;17.20;88.70
58809;DHT22;44579;51.672;7.834;2023-07-30T02:23:53;17.10;88.60
58809;DHT22;44579;51.672;7.834;2023-07-30T02:26:19;17.20;88.70
58809;DHT22;44579;51.672;7.834;2023-07-30T02:28:46;17.10;88.50
58809;DHT22;44579;51.672;7.834;2023-07-30T02:31:13;17.10;88.60
58809;DHT22;44579;51.672;7.834;2023-07-30T02:33:40;17.10;88.60
58809;DHT22;44579;51.672;7.834;2023-07-30T02:36:07;17.10;88.60
58809;DHT22;44579;51.672;7.834;2023-07-30T02:38:34;17.10;88.60
58809;DHT22;44579;51.672;7.834;2023-07-30T02:41:01;17.00;88.70
58809;DHT22;44579;51.672;7.834;2023-07-30T02:43:27;17.00;88.60
58809;DHT22;44579;51.672;7.834;2023-07-30T02:45:54;17.00;88.60
58809;DHT22;44579;51.672;7.834;2023-07-30T02:48:21;16.90;88.50
58809;DHT22;44579;51.672;7.834;2023-07-30T02:50:48;16.90;88.60
58809;DHT22;44579;51.672;7.834;2023-07-30T02:53:14;16.90;88.70
58809;DHT22;44579;51.672;7.834;2023-07-30T02:55:41;16.80;88.60
58809;DHT22;44579;51.672;7.834;2023-07-30T02:58:08;16.80;88.70
58809;DHT22;44579;51.672;7.834;2023-07-30T03:00:35;16.80;88.70
58809;DHT22;44579;51.672;7.834;2023-07-30T03:03:02;16.70;88.70
58809;DHT22;44579;51.672;7.834;2023-07-30T03:05:29;16.70;88.80
58809;DHT22;44579;51.672;7.834;2023-07-30T03:07:56;16.70;88.80
58809;DHT22;44579;51.672;7.834;2023-07-30T03:10:23;16.60;88.80
58809;DHT22;44579;51.672;7.834;2023-07-30T03:12:50;16.60;89.00
58809;DHT22;44579;51.672;7.834;2023-07-30T03:15:17;16.50;89.10
58809;DHT22;44579;51.672;7.834;2023-07-30T03:17:44;16.60;89.30
58809;DHT22;44579;51.672;7.834;2023-07-30T03:20:10;16.50;89.20
58809;DHT22;44579;51.672;7.834;2023-07-30T03:22:37;16.50;89.30
58809;DHT22;44579;51.672;7.834;2023-07-30T03:25:04;16.40;89.30
58809;DHT22;44579;51.672;7.834;2023-07-30T03:27:31;16.40;89.40
58809;DHT22;44579;51.672;7.834;2023-07-30T03:29:58;16.40;89.30
58809;DHT22;44579;51.672;7.834;2023-07-30T03:32:25;16.40;89.20
58809;DHT22;44579;51.672;7.834;2023-07-30T03:34:52;16.40;89.20
58809;DHT22;44579;51.672;7.834;2023-07-30T03:37:19;16.50;89.20
58809;DHT22;44579;51.672;7.834;2023-07-30T03:39:46;16.40;89.20
58809;DHT22;44579;51.672;7.834;2023-07-30T03:42:12;16.40;89.20
58809;DHT22;44579;51.672;7.834;2023-07-30T03:44:39;16.40;89.20
58809;DHT22;44579;51.672;7.834;2023-07-30T03:47:06;16.40;89.20
58809;DHT22;44579;51.672;7.834;2023-07-30T03:49:33;16.40;89.20
58809;DHT22;44579;51.672;7.834;2023-07-30T03:52:00;16.40;89.10
58809;DHT22;44579;51.672;7.834;2023-07-30T03:54:27;16.40;89.10
58809;DHT22;44579;51.672;7.834;2023-07-30T03:56:54;16.40;89.20
58809;DHT22;44579;51.672;7.834;2023-07-30T03:59:21;16.40;89.20
58809;DHT22;44579;51.672;7.834;2023-07-30T04:01:48;16.30;89.30
58809;DHT22;44579;51.672;7.834;2023-07-30T04:04:15;16.30;89.30
58809;DHT22;44579;51.672;7.834;2023-07-30T04:06:42;16.40;89.40
58809;DHT22;44579;51.672;7.834;2023-07-30T04:09:08;16.40;89.40
58809;DHT22;44579;51.672;7.834;2023-07-30T04:11:37;16.40;89.30
58809;DHT22;44579;51.672;7.834;2023-07-30T04:14:04;16.40;89.40
58809;DHT22;44579;51.672;7.834;2023-07-30T04:16:34;16.40;89.40
58809;DHT22;44579;51.672;7.834;2023-07-30T04:19:01;16.50;89.50
58809;DHT22;44579;51.672;7.834;2023-07-30T04:21:28;16.50;89.50
58809;DHT22;44579;51.672;7.834;2023-07-30T04:23:55;16.50;89.50
58809;DHT22;44579;51.672;7.834;2023-07-30T04:26:21;16.50;89.50
58809;DHT22;44579;51.672;7.834;2023-07-30T04:28:48;16.60;89.60
58809;DHT22;44579;51.672;7.834;2023-07-30T04:31:16;16.60;89.50
58809;DHT22;44579;51.672;7.834;2023-07-30T04:33:42;16.60;89.50
58809;DHT22;44579;51.672;7.834;2023-07-30T04:36:10;16.70;89.40
58809;DHT22;44579;51.672;7.834;2023-07-30T04:38:37;16.70;89.40
58809;DHT22;44579;51.672;7.834;2023-07-30T04:41:03;16.70;89.60
58809;DHT22;44579;51.672;7.834;2023-07-30T04:43:36;16.70;89.70
58809;DHT22;44579;51.672;7.834;2023-07-30T04:46:03;16.70;89.90
58809;DHT22;44579;51.672;7.834;2023-07-30T04:48:31;16.80;90.00
58809;DHT22;44579;51.672;7.834;2023-07-30T04:50:58;16.80;90.10
58809;DHT22;44579;51.672;7.834;2023-07-30T04:53:24;16.90;90.20
58809;DHT22;44579;51.672;7.834;2023-07-30T04:55:55;16.90;90.30
58809;DHT22;44579;51.672;7.834;2023-07-30T04:58:23;17.00;90.50
58809;DHT22;44579;51.672;7.834;2023-07-30T05:00:50;17.20;90.80
58809;DHT22;44579;51.672;7.834;2023-07-30T05:03:17;17.50;91.00
58809;DHT22;44579;51.672;7.834;2023-07-30T05:05:44;17.70;91.20
58809;DHT22;44579;51.672;7.834;2023-07-30T05:08:11;18.00;91.50
58809;DHT22;44579;51.672;7.834;2023-07-30T05:10:37;18.20;91.70
58809;DHT22;44579;51.672;7.834;2023-07-30T05:13:04;18.40;92.00
58809;DHT22;44579;51.672;7.834;2023-07-30T05:15:31;18.50;92.10
58809;DHT22;44579;51.672;7.834;2023-07-30T05:17:58;18.50;92.10
58809;DHT22;44579;51.672;7.834;2023-07-30T05:20:25;18.50;92.20
58809;DHT22;44579;51.672;7.834;2023-07-30T05:22:51;18.40;92.10
58809;DHT22;44579;51.672;7.834;2023-07-30T05:25:18;18.40;92.20
58809;DHT22;44579;51.672;7.834;2023-07-30T05:27:45;18.60;92.60
58809;DHT22;44579;51.672;7.834;2023-07-30T05:30:11;18.80;92.80
58809;DHT22;44579;51.672;7.834;2023-07-30T05:32:38;19.00;93.00
58809;DHT22;44579;51.672;7.834;2023-07-30T05:35:05;19.20;93.10
58809;DHT22;44579;51.672;7.834;2023-07-30T05:37:32;19.50;93.30
58809;DHT22;44579;51.672;7.834;2023-07-30T05:39:59;19.60;93.30
58809;DHT22;44579;51.672;7.834;2023-07-30T05:42:26;19.80;93.50
58809;DHT22;44579;51.672;7.834;2023-07-30T05:44:53;19.80;93.60
58809;DHT22;44579;51.672;7.834;2023-07-30T05:47:19;19.90;93.80
58809;DHT22;44579;51.672;7.834;2023-07-30T05:49:46;20.00;93.80
58809;DHT22;44579;51.672;7.834;2023-07-30T05:52:13;20.00;94.00
58809;DHT22;44579;51.672;7.834;2023-07-30T05:54:40;20.00;94.00
58809;DHT22;44579;51.672;7.834;2023-07-30T05:57:07;20.00;94.10
58809;DHT22;44579;51.672;7.834;2023-07-30T05:59:34;19.90;94.00
58809;DHT22;44579;51.672;7.834;2023-07-30T06:02:02;19.90;93.80
58809;DHT22;44579;51.672;7.834;2023-07-30T06:04:29;19.70;93.50
58809;DHT22;44579;51.672;7.834;2023-07-30T06:06:57;19.60;93.30
58809;DHT22;44579;51.672;7.834;2023-07-30T06:09:24;19.40;93.00
58809;DHT22;44579;51.672;7.834;2023-07-30T06:11:51;19.10;92.70
58809;DHT22;44579;51.672;7.834;2023-07-30T06:14:18;18.90;92.50
58809;DHT22;44579;51.672;7.834;2023-07-30T06:16:44;18.80;92.30
58809;DHT22;44579;51.672;7.834;2023-07-30T06:19:11;18.70;92.20
58809;DHT22;44579;51.672;7.834;2023-07-30T06:21:38;18.70;92.10
58809;DHT22;44579;51.672;7.834;2023-07-30T06:24:05;18.70;92.10
58809;DHT22;44579;51.672;7.834;2023-07-30T06:26:32;18.70;91.90
58809;DHT22;44579;51.672;7.834;2023-07-30T06:28:59;18.70;91.70
58809;DHT22;44579;51.672;7.834;2023-07-30T06:31:25;18.60;91.50
58809;DHT22;44579;51.672;7.834;2023-07-30T06:33:52;18.50;91.40
58809;DHT22;44579;51.672;7.834;2023-07-30T06:36:19;18.50;91.30
58809;DHT22;44579;51.672;7.834;2023-07-30T06:38:46;18.40;91.20
58809;DHT22;44579;51.672;7.834;2023-07-30T06:41:13;18.40;91.20
58809;DHT22;44579;51.672;7.834;2023-07-30T06:43:40;18.50;91.10
58809;DHT22;44579;51.672;7.834;2023-07-30T06:46:07;18.40;90.90
58809;DHT22;44579;51.672;7.834;2023-07-30T06:48:33;18.30;90.70
58809;DHT22;44579;51.672;7.834;2023-07-30T06:51:00;18.30;90.60
58809;DHT22;44579;51.672;7.834;2023-07-30T06:53:27;18.30;90.60
58809;DHT22;44579;51.672;7.834;2023-07-30T06:55:54;18.20;90.50
58809;DHT22;44579;51.672;7.834;2023-07-30T06:58:20;18.10;90.40
58809;DHT22;44579;51.672;7.834;2023-07-30T07:00:47;18.20;90.40
58809;DHT22;44579;51.672;7.834;2023-07-30T07:03:14;18.20;90.40
58809;DHT22;44579;51.672;7.834;2023-07-30T07:05:41;18.20;90.40
58809;DHT22;44579;51.672;7.834;2023-07-30T07:08:10;18.30;90.20
58809;DHT22;44579;51.672;7.834;2023-07-30T07:10:40;18.20;90.20
58809;DHT22;44579;51.672;7.834;2023-07-30T07:13:06;18.30;90.10
58809;DHT22;44579;51.672;7.834;2023-07-30T07:15:33;18.30;90.00
58809;DHT22;44579;51.672;7.834;2023-07-30T07:18:00;18.30;90.00
58809;DHT22;44579;51.672;7.834;2023-07-30T07:20:27;18.20;89.80
58809;DHT22;44579;51.672;7.834;2023-07-30T07:22:54;18.30;89.90
58809;DHT22;44579;51.672;7.834;2023-07-30T07:25:20;18.30;89.70
58809;DHT22;44579;51.672;7.834;2023-07-30T07:27:47;18.30;89.70
58809;DHT22;44579;51.672;7.834;2023-07-30T07:30:14;18.30;89.50
58809;DHT22;44579;51.672;7.834;2023-07-30T07:32:41;18.30;89.40
58809;DHT22;44579;51.672;7.834;2023-07-30T07:35:08;18.30;89.50
58809;DHT22;44579;51.672;7.834;2023-07-30T07:37:35;18.30;89.50
58809;DHT22;44579;51.672;7.834;2023-07-30T07:40:02;18.30;89.40
58809;DHT22;44579;51.672;7.834;2023-07-30T07:42:29;18.40;89.40
58809;DHT22;44579;51.672;7.834;2023-07-30T07:44:57;18.40;89.20
58809;DHT22;44579;51.672;7.834;2023-07-30T07:47:24;18.40;89.30
58809;DHT22;44579;51.672;7.834;2023-07-30T07:49:50;18.40;89.20
58809;DHT22;44579;51.672;7.834;2023-07-30T07:52:17;18.40;89.20
58809;DHT22;44579;51.672;7.834;2023-07-30T07:54:45;18.50;89.20
58809;DHT22;44579;51.672;7.834;2023-07-30T07:57:12;18.50;89.20
58809;DHT22;44579;51.672;7.834;2023-07-30T07:59:39;18.50;89.20
58809;DHT22;44579;51.672;7.834;2023-07-30T08:02:08;18.60;89.20
58809;DHT22;44579;51.672;7.834;2023-07-30T08:04:35;18.50;89.00
58809;DHT22;44579;51.672;7.834;2023-07-30T08:07:01;18.50;89.10
58809;DHT22;44579;51.672;7.834;2023-07-30T08:09:30;18.40;89.30
58809;DHT22;44579;51.672;7.834;2023-07-30T08:11:57;18.50;89.50
58809;DHT22;44579;51.672;7.834;2023-07-30T08:14:23;18.40;89.40
58809;DHT22;44579;51.672;7.834;2023-07-30T08:16:50;18.50;90.10
58809;DHT22;44579;51.672;7.834;2023-07-30T08:19:17;18.40;89.40
58809;DHT22;44579;51.672;7.834;2023-07-30T08:21:44;18.40;89.40
58809;DHT22;44579;51.672;7.834;2023-07-30T08:24:10;18.40;89.60
58809;DHT22;44579;51.672;7.834;2023-07-30T08:26:37;18.30;89.50
58809;DHT22;44579;51.672;7.834;2023-07-30T08:29:04;18.30;89.60
58809;DHT22;44579;51.672;7.834;2023-07-30T08:31:32;18.30;89.70
58809;DHT22;44579;51.672;7.834;2023-07-30T08:33:59;18.30;89.60
58809;DHT22;44579;51.672;7.834;2023-07-30T08:36:26;18.30;89.60
58809;DHT22;44579;51.672;7.834;2023-07-30T08:38:53;18.30;89.70
58809;DHT22;44579;51.672;7.834;2023-07-30T08:41:20;18.40;89.60
58809;DHT22;44579;51.672;7.834;2023-07-30T08:43:46;18.50;89.70
58809;DHT22;44579;51.672;7.834;2023-07-30T08:46:15;18.60;89.70
58809;DHT22;44579;51.672;7.834;2023-07-30T08:48:42;18.70;89.60
58809;DHT22;44579;51.672;7.834;2023-07-30T08:51:12;18.80;89.40
58809;DHT22;44579;51.672;7.834;2023-07-30T08:53:39;18.90;89.50
58809;DHT22;44579;51.672;7.834;2023-07-30T08:56:07;18.90;89.50
58809;DHT22;44579;51.672;7.834;2023-07-30T08:58:34;18.90;89.40
58809;DHT22;44579;51.672;7.834;2023-07-30T09:01:02;18.80;89.40
58809;DHT22;44579;51.672;7.834;2023-07-30T09:03:33;18.80;89.40
58809;DHT22;44579;51.672;7.834;2023-07-30T09:06:01;18.70;89.60
58809;DHT22;44579;51.672;7.834;2023-07-30T09:08:28;18.70;89.60
58809;DHT22;44579;51.672;7.834;2023-07-30T09:10:56;18.60;89.60
58809;DHT22;44579;51.672;7.834;2023-07-30T09:13:23;18.70;89.60
58809;DHT22;44579;51.672;7.834;2023-07-30T09:15:51;18.60;89.40
58809;DHT22;44579;51.672;7.834;2023-07-30T09:18:17;18.60;89.50
58809;DHT22;44579;51.672;7.834;2023-07-30T09:20:47;18.60;89.60
58809;DHT22;44579;51.672;7.834;2023-07-30T09:23:14;18.70;89.80
58809;DHT22;44579;51.672;7.834;2023-07-30T09:25:41;18.90;89.80
58809;DHT22;44579;51.672;7.834;2023-07-30T09:28:08;19.20;89.70
58809;DHT22;44579;51.672;7.834;2023-07-30T09:30:35;19.60;89.40
58809;DHT22;44579;51.672;7.834;2023-07-30T09:33:01;19.90;89.20
58809;DHT22;44579;51.672;7.834;2023-07-30T09:35:28;20.20;89.50
58809;DHT22;44579;51.672;7.834;2023-07-30T09:37:59;20.40;90.00
58809;DHT22;44579;51.672;7.834;2023-07-30T09:40:33;20.50;90.20
58809;DHT22;44579;51.672;7.834;2023-07-30T09:43:01;20.60;90.10
58809;DHT22;44579;51.672;7.834;2023-07-30T09:45:28;20.60;90.10
58809;DHT22;44579;51.672;7.834;2023-07-30T09:47:59;20.70;90.10
58809;DHT22;44579;51.672;7.834;2023-07-30T09:50:26;20.70;90.10
58809;DHT22;44579;51.672;7.834;2023-07-30T09:52:55;20.60;90.10
58809;DHT22;44579;51.672;7.834;2023-07-30T09:55:22;20.60;90.10
58809;DHT22;44579;51.672;7.834;2023-07-30T09:57:49;20.60;90.20
58809;DHT22;44579;51.672;7.834;2023-07-30T10:00:16;20.80;90.10
58809;DHT22;44579;51.672;7.834;2023-07-30T10:02:45;20.90;90.20
58809;DHT22;44579;51.672;7.834;2023-07-30T10:05:21;20.90;90.20
58809;DHT22;44579;51.672;7.834;2023-07-30T10:07:52;20.90;90.20
58809;DHT22;44579;51.672;7.834;2023-07-30T10:10:20;20.90;90.20
58809;DHT22;44579;51.672;7.834;2023-07-30T10:12:48;21.00;90.30
58809;DHT22;44579;51.672;7.834;2023-07-30T10:15:20;20.90;90.20
58809;DHT22;44579;51.672;7.834;2023-07-30T10:17:53;20.90;90.30
58809;DHT22;44579;51.672;7.834;2023-07-30T10:20:26;20.90;90.30
58809;DHT22;44579;51.672;7.834;2023-07-30T10:22:53;20.90;90.30
58809;DHT22;44579;51.672;7.834;2023-07-30T10:25:22;20.80;90.30
58809;DHT22;44579;51.672;7.834;2023-07-30T10:27:50;20.90;90.40
58809;DHT22;44579;51.672;7.834;2023-07-30T10:30:18;20.90;90.30
58809;DHT22;44579;51.672;7.834;2023-07-30T10:38:11;21.30;90.00
58809;DHT22;44579;51.672;7.834;2023-07-30T10:40:39;21.30;89.30
58809;DHT22;44579;51.672;7.834;2023-07-30T10:43:18;21.40;89.60
58809;DHT22;44579;51.672;7.834;2023-07-30T10:45:48;21.60;89.50
58809;DHT22;44579;51.672;7.834;2023-07-30T10:48:15;21.70;89.00
58809;DHT22;44579;51.672;7.834;2023-07-30T10:50:42;21.70;88.80
58809;DHT22;44579;51.672;7.834;2023-07-30T10:53:09;21.60;89.00
58809;DHT22;44579;51.672;7.834;2023-07-30T10:55:36;21.70;89.10
58809;DHT22;44579;51.672;7.834;2023-07-30T10:58:03;21.80;89.10
58809;DHT22;44579;51.672;7.834;2023-07-30T11:00:31;21.90;88.90
58809;DHT22;44579;51.672;7.834;2023-07-30T11:02:58;22.00;88.80
58809;DHT22;44579;51.672;7.834;2023-07-30T11:05:25;22.10;88.50
58809;DHT22;44579;51.672;7.834;2023-07-30T11:07:52;22.10;88.40
58809;DHT22;44579;51.672;7.834;2023-07-30T11:10:19;22.10;87.90
58809;DHT22;44579;51.672;7.834;2023-07-30T11:12:47;22.20;88.10
58809;DHT22;44579;51.672;7.834;2023-07-30T11:15:15;22.20;87.90
58809;DHT22;44579;51.672;7.834;2023-07-30T11:17:42;22.20;87.70
58809;DHT22;44579;51.672;7.834;2023-07-30T11:20:24;22.30;87.70
58809;DHT22;44579;51.672;7.834;2023-07-30T11:22:53;22.30;86.80
58809;DHT22;44579;51.672;7.834;2023-07-30T11:25:20;22.30;87.10
58809;DHT22;44579;51.672;7.834;2023-07-30T11:27:47;22.20;87.40
58809;DHT22;44579;51.672;7.834;2023-07-30T11:30:14;22.20;87.40
58809;DHT22;44579;51.672;7.834;2023-07-30T11:32:42;22.20;87.20
58809;DHT22;44579;51.672;7.834;2023-07-30T11:35:09;22.10;86.90
58809;DHT22;44579;51.672;7.834;2023-07-30T11:37:36;22.00;86.80
58809;DHT22;44579;51.672;7.834;2023-07-30T11:40:07;21.80;86.30
58809;DHT22;44579;51.672;7.834;2023-07-30T11:42:35;21.70;86.20
58809;DHT22;44579;51.672;7.834;2023-07-30T11:45:18;21.50;86.10
58809;DHT22;44579;51.672;7.834;2023-07-30T11:47:46;21.40;85.90
58809;DHT22;44579;51.672;7.834;2023-07-30T11:50:12;21.40;85.80
58809;DHT22;44579;51.672;7.834;2023-07-30T11:52:52;21.50;85.60
58809;DHT22;44579;51.672;7.834;2023-07-30T11:55:19;21.60;85.50
58809;DHT22;44579;51.672;7.834;2023-07-30T11:57:46;21.80;85.30
58809;DHT22;44579;51.672;7.834;2023-07-30T12:00:13;21.80;85.00
58809;DHT22;44579;51.672;7.834;2023-07-30T12:02:40;21.80;84.90
58809;DHT22;44579;51.672;7.834;2023-07-30T12:05:09;21.80;84.80
58809;DHT22;44579;51.672;7.834;2023-07-30T12:07:41;21.90;84.80
58809;DHT22;44579;51.672;7.834;2023-07-30T12:10:09;22.00;84.50
58809;DHT22;44579;51.672;7.834;2023-07-30T12:12:36;22.00;84.00
58809;DHT22;44579;51.672;7.834;2023-07-30T12:15:09;22.00;84.00
58809;DHT22;44579;51.672;7.834;2023-07-30T12:17:36;22.10;83.80
58809;DHT22;44579;51.672;7.834;2023-07-30T12:20:03;22.30;83.50
58809;DHT22;44579;51.672;7.834;2023-07-30T12:22:33;22.30;83.20
58809;DHT22;44579;51.672;7.834;2023-07-30T12:25:05;22.40;82.70
58809;DHT22;44579;51.672;7.834;2023-07-30T12:27:32;22.50;82.70
58809;DHT22;44579;51.672;7.834;2023-07-30T12:29:59;22.50;82.50
58809;DHT22;44579;51.672;7.834;2023-07-30T12:32:26;22.40;82.50
58809;DHT22;44579;51.672;7.834;2023-07-30T12:34:54;22.30;82.50
58809;DHT22;44579;51.672;7.834;2023-07-30T12:37:22;22.20;82.30
58809;DHT22;44579;51.672;7.834;2023-07-30T12:39:49;22.10;82.30
58809;DHT22;44579;51.672;7.834;2023-07-30T12:42:16;22.00;82.50
58809;DHT22;44579;51.672;7.834;2023-07-30T12:44:42;21.80;82.20
58809;DHT22;44579;51.672;7.834;2023-07-30T12:47:09;21.70;82.10
58809;DHT22;44579;51.672;7.834;2023-07-30T12:49:36;21.60;81.70
58809;DHT22;44579;51.672;7.834;2023-07-30T12:52:03;21.40;81.60
58809;DHT22;44579;51.672;7.834;2023-07-30T12:54:29;21.20;81.80
58809;DHT22;44579;51.672;7.834;2023-07-30T12:56:56;21.20;81.90
58809;DHT22;44579;51.672;7.834;2023-07-30T12:59:23;21.10;81.60
58809;DHT22;44579;51.672;7.834;2023-07-30T13:01:50;21.00;81.80
58809;DHT22;44579;51.672;7.834;2023-07-30T13:04:17;21.00;81.70
58809;DHT22;44579;51.672;7.834;2023-07-30T13:06:43;20.90;80.80
58809;DHT22;44579;51.672;7.834;2023-07-30T13:09:10;20.80;80.70
58809;DHT22;44579;51.672;7.834;2023-07-30T13:11:37;20.70;77.60
58809;DHT22;44579;51.672;7.834;2023-07-30T13:14:04;20.30;76.00
58809;DHT22;44579;51.672;7.834;2023-07-30T13:16:31;20.00;77.50
58809;DHT22;44579;51.672;7.834;2023-07-30T13:18:59;19.70;75.90
58809;DHT22;44579;51.672;7.834;2023-07-30T13:21:26;19.30;75.70
58809;DHT22;44579;51.672;7.834;2023-07-30T13:23:53;19.10;76.10
58809;DHT22;44579;51.672;7.834;2023-07-30T13:26:20;19.00;76.00
58809;DHT22;44579;51.672;7.834;2023-07-30T13:28:47;19.00;77.00
58809;DHT22;44579;51.672;7.834;2023-07-30T13:31:13;19.10;77.20
58809;DHT22;44579;51.672;7.834;2023-07-30T13:33:40;19.20;77.10
58809;DHT22;44579;51.672;7.834;2023-07-30T13:36:08;19.50;77.10
58809;DHT22;44579;51.672;7.834;2023-07-30T13:38:35;19.70;76.60
58809;DHT22;44579;51.672;7.834;2023-07-30T13:41:02;19.90;76.30
58809;DHT22;44579;51.672;7.834;2023-07-30T13:43:29;19.90;76.10
58809;DHT22;44579;51.672;7.834;2023-07-30T13:45:55;20.10;76.30
58809;DHT22;44579;51.672;7.834;2023-07-30T13:48:23;20.30;75.80
58809;DHT22;44579;51.672;7.834;2023-07-30T13:50:50;20.40;75.40
58809;DHT22;44579;51.672;7.834;2023-07-30T13:53:17;20.60;75.30
58809;DHT22;44579;51.672;7.834;2023-07-30T13:55:44;20.70;75.10
58809;DHT22;44579;51.672;7.834;2023-07-30T13:58:11;20.90;75.10
58809;DHT22;44579;51.672;7.834;2023-07-30T14:00:40;21.00;75.10
58809;DHT22;44579;51.672;7.834;2023-07-30T14:03:07;21.10;75.30
58809;DHT22;44579;51.672;7.834;2023-07-30T14:05:36;21.10;75.70
58809;DHT22;44579;51.672;7.834;2023-07-30T14:08:03;21.10;75.90
58809;DHT22;44579;51.672;7.834;2023-07-30T14:10:30;21.00;75.90
58809;DHT22;44579;51.672;7.834;2023-07-30T14:12:57;21.00;76.30
58809;DHT22;44579;51.672;7.834;2023-07-30T14:15:23;20.90;76.50
58809;DHT22;44579;51.672;7.834;2023-07-30T14:17:50;20.80;76.80
58809;DHT22;44579;51.672;7.834;2023-07-30T14:20:18;20.80;77.00
58809;DHT22;44579;51.672;7.834;2023-07-30T14:22:45;20.80;77.30
58809;DHT22;44579;51.672;7.834;2023-07-30T14:25:12;20.70;77.30
58809;DHT22;44579;51.672;7.834;2023-07-30T14:27:39;20.80;77.30
58809;DHT22;44579;51.672;7.834;2023-07-30T14:30:06;21.00;77.00
58809;DHT22;44579;51.672;7.834;2023-07-30T14:32:33;21.10;77.00
58809;DHT22;44579;51.672;7.834;2023-07-30T14:35:00;21.20;76.90
58809;DHT22;44579;51.672;7.834;2023-07-30T14:37:27;21.30;76.90
58809;DHT22;44579;51.672;7.834;2023-07-30T14:39:53;21.40;76.80
58809;DHT22;44579;51.672;7.834;2023-07-30T14:42:20;21.60;76.50
58809;DHT22;44579;51.672;7.834;2023-07-30T14:44:47;21.60;76.40
58809;DHT22;44579;51.672;7.834;2023-07-30T14:47:14;21.70;76.40
58809;DHT22;44579;51.672;7.834;2023-07-30T14:49:40;21.80;76.40
58809;DHT22;44579;51.672;7.834;2023-07-30T14:52:07;21.80;76.40
58809;DHT22;44579;51.672;7.834;2023-07-30T14:54:34;21.70;76.30
58809;DHT22;44579;51.672;7.834;2023-07-30T14:57:01;21.70;76.40
58809;DHT22;44579;51.672;7.834;2023-07-30T14:59:28;21.80;76.40
58809;DHT22;44579;51.672;7.834;2023-07-30T15:01:54;21.90;76.30
58809;DHT22;44579;51.672;7.834;2023-07-30T15:04:21;22.00;76.40
58809;DHT22;44579;51.672;7.834;2023-07-30T15:06:48;22.00;75.90
58809;DHT22;44579;51.672;7.834;2023-07-30T15:09:15;22.00;75.70
58809;DHT22;44579;51.672;7.834;2023-07-30T15:11:43;22.10;75.80
58809;DHT22;44579;51.672;7.834;2023-07-30T15:14:10;22.10;75.80
58809;DHT22;44579;51.672;7.834;2023-07-30T15:16:37;22.10;75.80
58809;DHT22;44579;51.672;7.834;2023-07-30T15:19:04;22.20;76.10
58809;DHT22;44579;51.672;7.834;2023-07-30T15:21:31;22.30;76.10
58809;DHT22;44579;51.672;7.834;2023-07-30T15:23:58;22.20;75.90
58809;DHT22;44579;51.672;7.834;2023-07-30T15:26:24;22.20;75.80
58809;DHT22;44579;51.672;7.834;2023-07-30T15:28:51;22.00;75.80
58809;DHT22;44579;51.672;7.834;2023-07-30T15:31:18;21.80;75.90
58809;DHT22;44579;51.672;7.834;2023-07-30T15:33:45;21.60;76.20
58809;DHT22;44579;51.672;7.834;2023-07-30T15:36:12;21.40;76.50